Time;durP1;ratioP1;P1;durP2;ratioP2;P2;SDS_P1;SDS_P2;PMS_P1;PMS_P2;Temp;Humidity;BMP_temperature;BMP_pressure;BME280_temperature;BME280_humidity;BME280_pressure;Samples;Min_cycle;Max_cycle;Signal;HPM_P1;HPM_P2
2021/04/23 00:01:28;;;;;;;15.90;11.00;;;11.40;69.60;;;;;;5071426;28;20024;-76
2021/04/23 00:04:00;;;;;;;15.60;10.90;;;11.30;69.60;;;;;;5073076;28;20112;-76
2021/04/23 00:06:34;;;;;;;13.82;10.38;;;11.30;69.90;;;;;;5073037;28;20030;-76
2021/04/23 00:09:21;;;;;;;14.60;10.10;;;11.20;69.90;;;;;;5072517;28;20124;-76
2021/04/23 00:12:10;;;;;;;18.70;11.15;;;11.20;70.20;;;;;;5072751;28;20041;-76
2021/04/23 00:14:47;;;;;;;19.65;12.55;;;11.10;70.40;;;;;;5072943;28;20035;-76
2021/04/23 00:17:14;;;;;;;20.08;12.48;;;11.00;70.60;;;;;;5072097;28;20492;-75
2021/04/23 00:19:41;;;;;;;20.35;11.77;;;10.90;70.70;;;;;;5072338;28;20040;-76
2021/04/23 00:22:08;;;;;;;20.80;12.80;;;10.80;71.00;;;;;;5072711;28;20033;-76
2021/04/23 00:24:35;;;;;;;20.83;12.60;;;10.70;71.20;;;;;;5072903;28;20116;-76
2021/04/23 00:27:02;;;;;;;19.92;13.90;;;10.70;71.40;;;;;;5072541;28;20031;-76
2021/04/23 00:29:28;;;;;;;20.48;14.07;;;10.70;71.70;;;;;;5072366;28;20450;-76
2021/04/23 00:34:40;;;;;;;18.88;13.13;;;10.60;72.10;;;;;;5076915;28;20043;-76
2021/04/23 00:37:06;;;;;;;21.90;16.70;;;10.50;72.20;;;;;;5076892;28;20052;-76
2021/04/23 00:39:32;;;;;;;42.10;28.38;;;10.50;72.40;;;;;;5076730;28;20067;-76
2021/04/23 00:41:59;;;;;;;38.05;27.13;;;10.40;72.50;;;;;;5075733;28;20107;-75
2021/04/23 00:44:25;;;;;;;50.88;33.88;;;10.50;72.80;;;;;;5076782;28;20076;-75
2021/04/23 00:46:51;;;;;;;44.47;32.30;;;10.50;73.40;;;;;;5076627;28;20068;-75
2021/04/23 00:49:16;;;;;;;53.65;36.88;;;10.50;72.90;;;;;;5076542;28;20131;-75
2021/04/23 00:51:51;;;;;;;41.10;28.77;;;10.50;73.00;;;;;;5075193;28;20055;-76
2021/04/23 00:54:16;;;;;;;37.03;23.70;;;10.50;73.10;;;;;;5076310;28;20103;-76
2021/04/23 00:56:43;;;;;;;36.78;22.58;;;10.40;73.10;;;;;;5076257;28;20068;-76
2021/04/23 00:59:10;;;;;;;37.92;26.88;;;10.40;73.20;;;;;;5076902;28;20460;-76
2021/04/23 01:01:47;;;;;;;46.50;31.77;;;10.40;73.40;;;;;;5071510;28;20028;-76
2021/04/23 01:04:14;;;;;;;37.20;26.63;;;10.40;74.20;;;;;;5058569;28;20082;-76
2021/04/23 01:06:41;;;;;;;32.47;20.15;;;10.40;73.70;;;;;;5076276;28;20510;-76
2021/04/23 01:09:19;;;;;;;21.55;15.45;;;10.50;73.80;;;;;;5076127;28;20036;-76
2021/04/23 01:11:46;;;;;;;20.98;14.68;;;10.50;73.90;;;;;;5075992;28;20055;-76
2021/04/23 01:14:12;;;;;;;20.10;14.43;;;10.50;73.90;;;;;;5075992;28;20028;-76
2021/04/23 01:16:38;;;;;;;22.63;15.65;;;10.50;73.90;;;;;;5075695;28;20086;-76
2021/04/23 01:19:06;;;;;;;23.55;15.88;;;10.50;74.10;;;;;;5076119;28;20110;-76
2021/04/23 01:21:34;;;;;;;22.90;15.57;;;10.60;74.20;;;;;;5074549;28;20619;-76
2021/04/23 01:24:02;;;;;;;19.67;15.15;;;10.60;74.30;;;;;;5076018;28;20024;-76
2021/04/23 01:26:34;;;;;;;21.10;13.63;;;10.60;74.30;;;;;;5075662;28;20432;-76
2021/04/23 01:29:02;;;;;;;22.23;15.23;;;10.70;74.30;;;;;;5074448;28;20024;-76
2021/04/23 01:31:31;;;;;;;23.67;15.68;;;10.70;74.20;;;;;;5075740;28;20187;-77
2021/04/23 01:34:05;;;;;;;24.95;16.15;;;10.70;74.30;;;;;;5075722;28;20033;-76
2021/04/23 01:36:30;;;;;;;21.05;14.30;;;10.70;74.30;;;;;;5075634;28;20020;-76
2021/04/23 01:38:56;;;;;;;21.58;13.27;;;10.70;74.30;;;;;;5074526;28;20078;-76
2021/04/23 01:41:22;;;;;;;20.90;13.43;;;10.70;74.50;;;;;;5075466;28;20039;-76
2021/04/23 01:43:51;;;;;;;20.27;14.07;;;10.80;74.50;;;;;;5075261;28;20053;-76
2021/04/23 01:46:18;;;;;;;23.80;14.55;;;10.80;74.70;;;;;;5075896;28;20028;-76
2021/04/23 01:48:43;;;;;;;19.20;13.88;;;10.80;74.70;;;;;;5074778;28;20028;-76
2021/04/23 01:51:12;;;;;;;21.77;14.93;;;10.80;74.80;;;;;;5076217;28;20077;-76
2021/04/23 01:53:38;;;;;;;18.20;13.98;;;10.80;75.00;;;;;;5075896;28;20029;-76
2021/04/23 01:56:05;;;;;;;21.98;15.43;;;10.90;75.00;;;;;;5075868;28;20062;-75
2021/04/23 01:58:32;;;;;;;22.67;14.85;;;10.90;75.00;;;;;;5076321;28;20092;-76
2021/04/23 02:00:58;;;;;;;21.20;15.43;;;10.90;75.00;;;;;;5076113;28;20368;-75
2021/04/23 02:03:24;;;;;;;24.30;14.68;;;10.90;75.10;;;;;;5075422;28;20028;-75
2021/04/23 02:05:53;;;;;;;22.30;14.77;;;10.90;75.90;;;;;;5075500;28;20021;-76
2021/04/23 02:08:21;;;;;;;23.13;15.50;;;10.90;75.40;;;;;;5074264;28;20501;-75
2021/04/23 02:10:55;;;;;;;25.33;16.08;;;10.80;75.40;;;;;;5075766;28;20042;-75
2021/04/23 02:13:25;;;;;;;22.55;14.77;;;10.80;75.50;;;;;;5075478;28;20021;-76
2021/04/23 02:15:52;;;;;;;22.23;14.00;;;10.80;75.60;;;;;;5075094;28;20109;-75
2021/04/23 02:18:19;;;;;;;24.77;15.88;;;10.70;75.60;;;;;;5075153;28;20028;-76
2021/04/23 02:20:44;;;;;;;22.17;15.55;;;10.70;75.70;;;;;;5075069;28;20020;-76
2021/04/23 02:23:12;;;;;;;25.63;15.38;;;10.70;76.00;;;;;;5075090;28;20545;-76
2021/04/23 02:25:39;;;;;;;22.65;14.82;;;10.70;76.40;;;;;;5074868;28;20020;-76
2021/04/23 02:28:06;;;;;;;21.05;15.30;;;10.70;76.50;;;;;;5074826;28;20344;-76
2021/04/23 02:30:36;;;;;;;22.55;15.90;;;10.70;76.80;;;;;;5074562;28;20040;-76
2021/04/23 02:33:03;;;;;;;26.20;17.00;;;10.70;76.90;;;;;;5075219;28;20069;-76
2021/04/23 02:35:29;;;;;;;38.97;20.08;;;10.70;77.00;;;;;;5075042;28;20107;-76
2021/04/23 02:37:55;;;;;;;26.77;16.55;;;10.70;77.00;;;;;;5074677;28;20501;-76
2021/04/23 02:40:25;;;;;;;25.02;17.33;;;10.70;77.10;;;;;;5074953;28;20032;-76
2021/04/23 02:42:54;;;;;;;25.20;15.63;;;10.70;77.20;;;;;;5074517;28;20180;-75
2021/04/23 02:45:25;;;;;;;28.08;17.77;;;10.70;77.20;;;;;;5074786;28;20071;-76
2021/04/23 02:47:51;;;;;;;27.70;17.60;;;10.70;77.40;;;;;;5074786;28;20090;-76
2021/04/23 02:50:19;;;;;;;28.02;18.17;;;10.70;77.50;;;;;;5074611;28;20072;-75
2021/04/23 02:52:45;;;;;;;25.83;16.88;;;10.70;77.70;;;;;;5074595;28;20032;-75
2021/04/23 02:55:14;;;;;;;30.88;17.45;;;10.70;77.80;;;;;;5073299;28;20520;-76
2021/04/23 02:57:40;;;;;;;27.80;17.60;;;10.70;77.90;;;;;;5074254;28;20052;-76
2021/04/23 03:00:14;;;;;;;25.20;17.23;;;10.70;78.00;;;;;;5073047;28;20466;-76
2021/04/23 03:02:40;;;;;;;28.23;18.52;;;10.70;78.10;;;;;;5074041;28;20025;-76
2021/04/23 03:05:07;;;;;;;34.88;18.88;;;10.70;78.20;;;;;;5074533;28;20040;-76
2021/04/23 03:07:33;;;;;;;30.98;19.35;;;10.70;78.20;;;;;;5074107;28;20031;-76
2021/04/23 03:09:59;;;;;;;34.13;20.13;;;10.70;78.30;;;;;;5073989;28;20031;-76
2021/04/23 03:12:24;;;;;;;32.55;19.45;;;10.70;78.30;;;;;;5056400;28;20386;-75
2021/04/23 03:14:50;;;;;;;34.65;19.95;;;10.70;78.40;;;;;;5073828;28;20040;-76
2021/04/23 03:17:16;;;;;;;30.27;18.33;;;10.70;78.30;;;;;;5073945;28;20355;-76
2021/04/23 03:19:41;;;;;;;32.92;18.52;;;10.80;78.30;;;;;;5073568;28;20029;-76
2021/04/23 03:22:07;;;;;;;33.42;18.98;;;10.80;78.30;;;;;;5074701;28;20451;-76
2021/04/23 03:24:33;;;;;;;32.78;18.33;;;10.70;78.30;;;;;;5073459;28;20112;-77
2021/04/23 03:26:59;;;;;;;31.13;18.70;;;10.70;78.30;;;;;;5073623;28;20490;-75
2021/04/23 03:29:24;;;;;;;29.42;18.48;;;10.70;78.40;;;;;;5073726;28;20035;-76
2021/04/23 03:31:50;;;;;;;31.83;21.23;;;10.70;78.50;;;;;;5073809;28;20435;-75
2021/04/23 03:34:16;;;;;;;35.72;20.40;;;10.70;78.60;;;;;;5074024;28;20157;-75
2021/04/23 03:36:42;;;;;;;33.95;19.98;;;10.70;78.80;;;;;;5073457;28;20121;-76
2021/04/23 03:39:10;;;;;;;29.33;19.02;;;10.70;78.80;;;;;;5073279;28;20548;-76
2021/04/23 03:41:38;;;;;;;28.27;18.38;;;10.70;78.90;;;;;;5073220;28;20120;-76
2021/04/23 03:44:04;;;;;;;33.00;19.55;;;10.70;78.90;;;;;;5071779;28;20049;-75
2021/04/23 03:46:31;;;;;;;30.13;19.52;;;10.80;78.90;;;;;;5073442;28;20031;-75
2021/04/23 03:48:57;;;;;;;34.60;21.27;;;10.80;78.80;;;;;;5073078;28;20036;-75
2021/04/23 03:51:23;;;;;;;34.35;21.88;;;10.80;78.80;;;;;;5073023;28;20044;-75
2021/04/23 03:53:49;;;;;;;35.30;21.98;;;10.80;78.80;;;;;;5072849;28;20419;-75
2021/04/23 03:56:16;;;;;;;36.28;21.50;;;10.80;78.80;;;;;;5073170;28;20056;-75
2021/04/23 03:58:43;;;;;;;34.38;21.85;;;10.80;79.00;;;;;;5072458;28;20532;-76
2021/04/23 04:01:15;;;;;;;38.50;22.20;;;10.90;79.00;;;;;;5072722;28;20027;-76
2021/04/23 04:03:42;;;;;;;32.10;20.67;;;10.90;79.10;;;;;;5072722;28;20021;-76
2021/04/23 04:06:08;;;;;;;34.90;19.67;;;11.00;79.10;;;;;;5065730;28;20103;-77
2021/04/23 04:08:34;;;;;;;34.95;21.50;;;11.00;78.90;;;;;;5072665;28;20517;-76
2021/04/23 04:11:03;;;;;;;35.42;22.15;;;10.90;78.90;;;;;;5072519;28;20059;-76
2021/04/23 04:13:28;;;;;;;33.17;21.23;;;10.90;79.10;;;;;;5070119;28;20385;-76
2021/04/23 04:15:54;;;;;;;37.67;22.65;;;10.90;79.20;;;;;;5071557;28;20032;-77
2021/04/23 04:18:22;;;;;;;42.38;24.48;;;10.80;79.40;;;;;;5071922;28;20404;-77
2021/04/23 04:20:49;;;;;;;38.70;23.58;;;10.80;79.50;;;;;;5072631;28;20155;-76
2021/04/23 04:23:17;;;;;;;41.10;24.45;;;10.70;79.90;;;;;;5073000;28;20020;-76
2021/04/23 04:25:49;;;;;;;38.10;22.27;;;10.70;80.30;;;;;;5073195;28;20036;-76
2021/04/23 04:28:15;;;;;;;36.15;22.80;;;10.70;80.60;;;;;;5072897;28;20029;-76
2021/04/23 04:30:42;;;;;;;41.72;24.60;;;10.70;80.70;;;;;;5072623;28;20496;-77
2021/04/23 04:33:09;;;;;;;37.30;22.77;;;10.70;80.70;;;;;;5072006;28;20024;-77
2021/04/23 04:35:36;;;;;;;38.95;23.58;;;10.60;80.70;;;;;;5072825;28;20021;-78
2021/04/23 04:38:03;;;;;;;37.53;23.17;;;10.60;80.70;;;;;;5072571;28;20493;-77
2021/04/23 04:40:29;;;;;;;34.65;23.35;;;10.60;80.80;;;;;;5072697;28;20035;-76
2021/04/23 04:42:56;;;;;;;38.33;22.83;;;10.60;81.00;;;;;;5072022;28;20048;-77
2021/04/23 04:45:24;;;;;;;34.17;21.10;;;10.60;81.10;;;;;;5072813;28;20028;-75
2021/04/23 04:47:50;;;;;;;37.17;22.83;;;10.60;81.10;;;;;;5072516;28;20033;-77
2021/04/23 04:50:31;;;;;;;38.13;22.88;;;10.60;81.10;;;;;;5072512;28;20024;-77
2021/04/23 04:53:02;;;;;;;36.15;21.23;;;10.60;81.20;;;;;;5071299;28;20033;-76
2021/04/23 04:55:31;;;;;;;36.10;21.83;;;10.60;81.20;;;;;;5072615;28;20024;-77
2021/04/23 04:57:58;;;;;;;37.53;22.30;;;10.70;81.40;;;;;;5072610;28;20033;-77
2021/04/23 05:00:25;;;;;;;37.45;22.27;;;10.80;81.40;;;;;;5072852;28;20435;-77
2021/04/23 05:02:52;;;;;;;29.30;19.05;;;10.80;81.40;;;;;;5072821;28;20060;-77
2021/04/23 05:05:20;;;;;;;33.75;20.27;;;10.90;81.30;;;;;;5072609;28;20028;-77
2021/04/23 05:07:46;;;;;;;32.35;20.42;;;11.00;81.40;;;;;;5072373;28;20027;-76
2021/04/23 05:10:13;;;;;;;35.38;19.85;;;11.10;81.40;;;;;;5072605;28;20523;-77
2021/04/23 05:12:39;;;;;;;29.17;19.67;;;11.20;81.20;;;;;;5072033;28;20029;-77
2021/04/23 05:15:07;;;;;;;31.42;19.33;;;11.40;81.20;;;;;;5072124;28;20028;-76
2021/04/23 05:17:33;;;;;;;30.92;19.17;;;11.50;81.10;;;;;;5073798;28;20033;-76
2021/04/23 05:19:59;;;;;;;31.27;19.58;;;11.80;80.70;;;;;;5075970;28;20044;-76
2021/04/23 05:22:25;;;;;;;33.22;19.73;;;11.90;80.10;;;;;;5076338;28;20029;-76
2021/04/23 05:24:51;;;;;;;29.23;18.42;;;12.00;79.20;;;;;;5075935;28;20112;-76
2021/04/23 05:27:17;;;;;;;34.00;19.85;;;12.10;78.60;;;;;;5074553;28;20025;-78
2021/04/23 05:29:43;;;;;;;29.05;18.38;;;12.10;78.20;;;;;;5074260;28;20043;-76
2021/04/23 05:32:08;;;;;;;34.00;21.08;;;12.10;78.10;;;;;;5075819;28;20036;-76
2021/04/23 05:34:34;;;;;;;33.65;21.85;;;12.10;78.10;;;;;;5075731;28;20086;-76
2021/04/23 05:37:00;;;;;;;37.53;19.23;;;12.10;78.20;;;;;;5075408;28;20024;-76
2021/04/23 05:39:26;;;;;;;31.48;19.80;;;12.10;78.10;;;;;;5075646;28;20111;-76
2021/04/23 05:41:52;;;;;;;26.88;19.13;;;12.20;78.10;;;;;;5075575;28;20198;-76
2021/04/23 05:44:18;;;;;;;32.63;18.75;;;12.20;78.00;;;;;;5075834;28;20048;-76
2021/04/23 05:46:44;;;;;;;30.45;19.67;;;12.30;78.10;;;;;;5073844;28;20031;-76
2021/04/23 05:49:11;;;;;;;34.83;18.48;;;12.40;78.20;;;;;;5075639;28;20055;-76
2021/04/23 05:51:37;;;;;;;28.83;19.45;;;12.50;78.10;;;;;;5075603;28;20039;-76
2021/04/23 05:54:03;;;;;;;28.90;19.02;;;12.60;77.50;;;;;;5075508;28;20063;-76
2021/04/23 05:56:29;;;;;;;26.67;19.38;;;12.80;77.40;;;;;;5075445;28;20209;-77
2021/04/23 05:58:55;;;;;;;26.95;18.63;;;12.90;77.20;;;;;;5074973;28;20103;-76
2021/04/23 06:01:23;;;;;;;30.73;19.90;;;13.00;76.50;;;;;;5075546;28;20063;-76
2021/04/23 06:03:49;;;;;;;26.60;18.17;;;13.00;76.00;;;;;;5075166;28;20047;-77
2021/04/23 06:06:16;;;;;;;28.50;20.08;;;13.10;75.90;;;;;;5075090;28;20025;-78
2021/04/23 06:08:42;;;;;;;28.60;20.13;;;13.10;76.10;;;;;;5074809;28;20025;-77
2021/04/23 06:11:15;;;;;;;31.77;19.80;;;13.20;76.20;;;;;;5073959;28;20047;-76
2021/04/23 06:13:42;;;;;;;26.42;17.58;;;13.30;76.40;;;;;;5074712;28;20113;-75
2021/04/23 06:16:07;;;;;;;31.02;18.90;;;13.40;76.20;;;;;;5074756;28;20474;-76
2021/04/23 06:18:33;;;;;;;25.30;18.55;;;13.50;75.90;;;;;;5074847;28;20024;-76
2021/04/23 06:20:59;;;;;;;27.65;19.30;;;13.70;75.60;;;;;;5074435;28;20060;-77
2021/04/23 06:23:25;;;;;;;29.17;17.98;;;13.70;75.20;;;;;;5074768;28;20032;-76
2021/04/23 06:25:51;;;;;;;28.55;18.10;;;13.70;75.10;;;;;;5074604;28;20036;-76
2021/04/23 06:28:17;;;;;;;24.52;16.70;;;13.80;74.80;;;;;;5073278;28;20024;-76
2021/04/23 06:30:42;;;;;;;24.95;18.38;;;13.80;74.60;;;;;;5074616;28;20585;-77
2021/04/23 06:33:18;;;;;;;26.10;18.15;;;13.90;74.60;;;;;;5075088;28;20417;-77
2021/04/23 06:35:45;;;;;;;28.40;18.25;;;13.90;74.50;;;;;;5074658;28;20107;-76
2021/04/23 06:38:10;;;;;;;28.52;18.17;;;14.00;74.40;;;;;;5074334;28;20028;-76
2021/04/23 06:40:37;;;;;;;23.98;17.65;;;14.10;74.40;;;;;;5074704;28;20020;-76
2021/04/23 06:43:04;;;;;;;22.80;16.48;;;14.20;74.00;;;;;;5072618;28;20496;-76
2021/04/23 06:45:29;;;;;;;22.77;16.75;;;14.30;73.50;;;;;;5074440;28;20048;-77
2021/04/23 06:47:56;;;;;;;21.77;15.43;;;14.40;72.80;;;;;;5074213;28;20466;-76
2021/04/23 06:50:22;;;;;;;22.17;17.27;;;14.50;72.40;;;;;;5073963;28;20122;-77
2021/04/23 06:52:49;;;;;;;25.10;18.05;;;14.60;71.90;;;;;;5073285;28;20602;-78
2021/04/23 06:55:17;;;;;;;19.92;15.38;;;14.70;71.60;;;;;;5070054;28;20081;-77
2021/04/23 06:57:43;;;;;;;19.58;14.93;;;14.80;71.00;;;;;;5072752;28;20562;-77
2021/04/23 07:00:13;;;;;;;17.63;14.25;;;14.90;70.70;;;;;;5072720;28;20402;-77
2021/04/23 07:02:39;;;;;;;20.50;14.30;;;14.90;69.80;;;;;;5072619;28;20021;-76
2021/04/23 07:05:05;;;;;;;19.80;14.73;;;14.90;69.50;;;;;;5072443;28;20027;-76
2021/04/23 07:07:32;;;;;;;21.13;14.75;;;15.00;69.50;;;;;;5072201;28;20036;-76
2021/04/23 07:09:57;;;;;;;20.65;14.25;;;15.00;69.20;;;;;;5072250;28;20183;-76
2021/04/23 07:12:23;;;;;;;17.05;13.73;;;15.00;68.90;;;;;;5072461;28;20442;-75
2021/04/23 07:14:49;;;;;;;20.17;14.55;;;15.10;68.60;;;;;;5072242;28;20125;-76
2021/04/23 07:17:15;;;;;;;18.67;14.18;;;15.10;68.40;;;;;;5069469;28;20472;-76
2021/04/23 07:19:41;;;;;;;17.45;14.25;;;15.20;68.10;;;;;;5072451;28;20074;-77
2021/04/23 07:22:07;;;;;;;21.25;14.93;;;15.20;68.00;;;;;;5071215;28;20033;-76
2021/04/23 07:24:34;;;;;;;18.15;14.35;;;15.40;67.90;;;;;;5070987;28;20098;-77
2021/04/23 07:27:00;;;;;;;18.60;14.00;;;15.50;67.60;;;;;;5072329;28;20036;-77
2021/04/23 07:29:26;;;;;;;18.70;13.88;;;15.80;67.20;;;;;;5072450;28;20086;-77
2021/04/23 07:31:51;;;;;;;17.75;12.25;;;15.90;66.30;;;;;;5070893;28;20052;-77
2021/04/23 07:34:17;;;;;;;18.23;12.38;;;15.90;65.20;;;;;;5072378;28;20436;-76
2021/04/23 07:36:43;;;;;;;19.55;11.60;;;15.70;64.30;;;;;;5072325;28;20028;-76
2021/04/23 07:39:10;;;;;;;17.77;11.00;;;15.40;64.30;;;;;;5071738;28;20029;-77
2021/04/23 07:41:38;;;;;;;15.55;10.40;;;15.20;64.70;;;;;;5065748;28;20041;-77
2021/04/23 07:44:05;;;;;;;16.00;10.65;;;15.10;64.80;;;;;;5072128;28;20048;-76
2021/04/23 07:46:31;;;;;;;18.77;9.98;;;15.30;64.60;;;;;;5070755;28;20382;-76
2021/04/23 07:48:57;;;;;;;14.45;9.32;;;15.40;64.70;;;;;;5072235;28;20574;-76
2021/04/23 07:51:23;;;;;;;14.77;10.00;;;15.80;64.00;;;;;;5071873;28;20378;-76
2021/04/23 07:53:49;;;;;;;18.00;8.90;;;16.20;63.20;;;;;;5072629;28;20047;-77
2021/04/23 07:56:14;;;;;;;12.50;8.77;;;16.40;61.80;;;;;;5073143;28;20115;-77
2021/04/23 07:58:40;;;;;;;11.65;8.20;;;16.50;61.00;;;;;;5072340;28;20036;-77
2021/04/23 08:01:06;;;;;;;12.05;8.45;;;16.80;60.60;;;;;;5073236;28;20028;-77
2021/04/23 08:03:32;;;;;;;12.10;8.43;;;17.10;60.00;;;;;;5073114;28;20034;-77
2021/04/23 08:05:58;;;;;;;15.60;9.10;;;17.40;59.00;;;;;;5072308;28;20017;-78
2021/04/23 08:08:24;;;;;;;14.70;8.60;;;17.60;58.10;;;;;;5072708;28;20028;-77
2021/04/23 08:10:49;;;;;;;14.60;8.80;;;17.70;57.30;;;;;;5072957;28;20070;-77
2021/04/23 08:13:15;;;;;;;13.38;7.97;;;17.80;57.00;;;;;;5073128;28;20028;-76
2021/04/23 08:15:41;;;;;;;13.50;8.80;;;17.80;56.40;;;;;;5073058;28;20050;-76
2021/04/23 08:18:07;;;;;;;14.60;8.40;;;17.70;55.80;;;;;;5072969;28;20351;-76
2021/04/23 08:20:34;;;;;;;15.93;9.52;;;17.40;55.50;;;;;;5072930;28;20093;-77
2021/04/23 08:23:00;;;;;;;14.77;8.95;;;17.20;55.70;;;;;;5072896;28;20071;-76
2021/04/23 08:25:26;;;;;;;15.57;8.85;;;16.90;55.90;;;;;;5072934;28;20060;-76
2021/04/23 08:27:52;;;;;;;13.90;9.23;;;16.70;56.30;;;;;;5071467;28;20025;-76
2021/04/23 08:30:20;;;;;;;11.60;8.15;;;16.60;56.60;;;;;;5072929;28;20351;-76
2021/04/23 08:32:46;;;;;;;12.52;8.18;;;16.60;56.90;;;;;;5073137;28;20029;-76
2021/04/23 08:35:12;;;;;;;11.27;8.55;;;16.70;57.30;;;;;;5071647;28;20552;-76
2021/04/23 08:37:39;;;;;;;11.90;8.98;;;16.90;56.90;;;;;;5071512;28;20028;-76
2021/04/23 08:40:08;;;;;;;15.50;8.50;;;17.00;56.40;;;;;;5072415;28;20121;-76
2021/04/23 08:42:34;;;;;;;12.85;8.05;;;17.10;56.00;;;;;;5072254;28;20105;-77
2021/04/23 08:45:02;;;;;;;13.77;8.15;;;17.20;55.60;;;;;;5072705;28;20036;-76
2021/04/23 08:47:29;;;;;;;13.07;8.63;;;17.20;55.10;;;;;;5072856;28;20166;-76
2021/04/23 08:49:58;;;;;;;12.32;7.88;;;17.20;54.90;;;;;;5072131;28;20037;-77
2021/04/23 08:52:24;;;;;;;13.30;7.75;;;17.30;54.60;;;;;;5075443;28;20451;-75
2021/04/23 08:54:50;;;;;;;14.80;8.23;;;17.30;54.40;;;;;;5075210;28;20021;-76
2021/04/23 08:57:16;;;;;;;14.57;7.68;;;17.30;54.20;;;;;;5076675;28;20103;-77
2021/04/23 08:59:41;;;;;;;9.68;7.20;;;17.20;54.30;;;;;;5076563;28;20060;-76
2021/04/23 09:02:07;;;;;;;11.68;7.82;;;17.30;54.40;;;;;;5076167;28;20024;-77
2021/04/23 09:04:33;;;;;;;11.50;7.47;;;17.30;53.90;;;;;;5076430;28;20086;-77
2021/04/23 09:07:05;;;;;;;14.57;8.27;;;17.10;53.90;;;;;;5075842;28;20032;-77
2021/04/23 09:09:42;;;;;;;12.07;7.30;;;16.80;54.10;;;;;;5075577;28;20043;-77
2021/04/23 09:12:21;;;;;;;15.95;8.57;;;16.60;54.40;;;;;;5074673;28;20074;-77
2021/04/23 09:14:48;;;;;;;12.00;7.88;;;16.30;54.60;;;;;;5054589;28;20155;-77
2021/04/23 09:17:18;;;;;;;12.02;7.97;;;16.10;54.90;;;;;;5064547;28;20024;-76
2021/04/23 09:19:44;;;;;;;13.07;8.23;;;15.80;55.30;;;;;;5075968;28;20033;-77
2021/04/23 09:22:29;;;;;;;15.05;9.20;;;15.50;55.80;;;;;;5074552;28;20111;-77
2021/04/23 09:25:04;;;;;;;;;;;15.30;56.30;;;;;;5076180;28;20076;-77
2021/04/23 09:27:35;;;;;;;17.73;8.47;;;15.10;56.70;;;;;;5076246;28;19904;-76
2021/04/23 09:30:06;;;;;;;14.13;8.10;;;15.00;56.80;;;;;;5075707;28;20029;-76
2021/04/23 09:32:40;;;;;;;14.02;8.13;;;14.80;57.30;;;;;;5074056;28;20039;-77
2021/04/23 09:35:12;;;;;;;13.40;8.40;;;14.70;57.60;;;;;;5075291;28;20025;-77
2021/04/23 09:37:40;;;;;;;13.18;7.50;;;14.80;57.90;;;;;;5075911;28;20021;-77
2021/04/23 09:40:12;;;;;;;13.18;8.00;;;14.80;57.90;;;;;;5075158;28;20063;-77
2021/04/23 09:42:55;;;;;;;10.07;7.78;;;14.90;58.00;;;;;;5072510;28;20048;-77
2021/04/23 09:45:28;;;;;;;13.57;8.05;;;14.90;58.60;;;;;;5075531;28;20103;-76
2021/04/23 09:48:02;;;;;;;13.27;8.05;;;15.00;57.80;;;;;;5075476;28;20044;-77
2021/04/23 09:50:38;;;;;;;12.15;7.18;;;15.00;57.50;;;;;;5064968;28;20036;-77
2021/04/23 09:53:07;;;;;;;10.95;7.35;;;15.00;58.10;;;;;;5065617;28;20048;-76
2021/04/23 09:55:33;;;;;;;14.63;7.78;;;14.90;57.70;;;;;;5074583;28;20131;-76
2021/04/23 09:58:07;;;;;;;9.88;7.50;;;14.90;57.90;;;;;;5074819;28;20035;-76
2021/04/23 10:00:40;;;;;;;10.65;7.72;;;14.80;58.00;;;;;;5072793;28;20033;-77
2021/04/23 10:03:07;;;;;;;14.13;8.38;;;14.80;57.90;;;;;;5074511;28;20051;-77
2021/04/23 10:05:33;;;;;;;11.25;8.15;;;14.80;57.90;;;;;;5075000;28;20111;-77
2021/04/23 10:08:00;;;;;;;12.40;7.30;;;14.90;58.10;;;;;;5074419;28;20056;-77
2021/04/23 10:10:27;;;;;;;10.63;7.60;;;15.00;58.00;;;;;;5074893;28;20044;-76
2021/04/23 10:12:55;;;;;;;10.27;7.35;;;15.10;57.80;;;;;;5074746;28;20054;-76
2021/04/23 10:15:23;;;;;;;11.23;7.72;;;15.20;57.80;;;;;;5074383;28;20067;-77
2021/04/23 10:17:50;;;;;;;9.63;7.00;;;15.20;57.60;;;;;;5074905;28;20025;-77
2021/04/23 10:23:39;;;;;;;10.98;7.40;;;15.30;57.10;;;;;;5072308;28;20023;-77
2021/04/23 10:26:05;;;;;;;11.52;6.97;;;15.60;57.30;;;;;;5074097;28;20063;-77
2021/04/23 10:28:35;;;;;;;10.43;7.25;;;15.90;57.00;;;;;;5073467;28;20056;-76
2021/04/23 10:31:01;;;;;;;9.15;6.95;;;16.20;56.50;;;;;;5074643;28;20031;-79
2021/04/23 10:33:29;;;;;;;9.45;6.68;;;16.60;55.50;;;;;;5074581;28;20027;-75
2021/04/23 10:35:57;;;;;;;7.88;5.55;;;16.50;54.50;;;;;;5073593;28;20107;-76
2021/04/23 10:38:32;;;;;;;12.73;7.03;;;16.40;54.40;;;;;;5074620;28;20458;-75
2021/04/23 10:41:00;;;;;;;11.27;7.00;;;16.30;54.30;;;;;;5074841;28;20441;-76
2021/04/23 10:43:26;;;;;;;9.85;7.03;;;16.20;54.60;;;;;;5074029;28;20086;-77
2021/04/23 10:45:58;;;;;;;11.20;6.65;;;16.20;54.90;;;;;;5074774;28;20044;-77
2021/04/23 10:48:27;;;;;;;10.77;6.28;;;16.30;54.80;;;;;;5074352;28;20470;-79
2021/04/23 10:50:57;;;;;;;8.32;6.07;;;16.40;54.60;;;;;;5074447;28;20486;-77
2021/04/23 10:53:26;;;;;;;10.05;6.18;;;16.70;54.60;;;;;;5074421;28;20028;-75
2021/04/23 10:55:57;;;;;;;8.70;5.40;;;17.10;54.10;;;;;;5074292;28;20028;-77
2021/04/23 10:58:25;;;;;;;7.22;5.40;;;17.20;53.10;;;;;;5073769;28;20040;-76
2021/04/23 11:00:52;;;;;;;8.40;5.40;;;17.40;52.80;;;;;;5073833;28;20028;-77
2021/04/23 11:03:21;;;;;;;8.18;5.10;;;17.40;52.40;;;;;;5073250;28;20033;-77
2021/04/23 11:05:55;;;;;;;8.80;5.18;;;17.20;52.10;;;;;;5073765;28;20032;-76
2021/04/23 11:08:23;;;;;;;7.47;4.95;;;17.00;52.30;;;;;;5072635;28;20123;-77
2021/04/23 11:11:11;;;;;;;6.72;5.13;;;16.80;52.70;;;;;;5072221;28;20044;-76
2021/04/23 11:13:39;;;;;;;6.57;5.40;;;16.50;52.70;;;;;;5073821;28;20107;-75
2021/04/23 11:16:20;;;;;;;7.75;5.13;;;16.20;53.20;;;;;;5072993;28;20036;-76
2021/04/23 11:18:48;;;;;;;8.35;5.20;;;15.80;53.70;;;;;;5073759;28;20032;-77
2021/04/23 11:21:33;;;;;;;6.10;4.57;;;15.50;54.10;;;;;;5073725;28;20069;-76
2021/04/23 11:24:20;;;;;;;5.85;4.00;;;15.20;54.60;;;;;;5073633;28;20123;-76
2021/04/23 11:26:57;;;;;;;6.50;4.53;;;14.90;55.10;;;;;;5073623;28;20020;-80
2021/04/23 11:29:27;;;;;;;6.38;4.93;;;14.70;55.40;;;;;;5073565;28;20079;-76
2021/04/23 11:32:16;;;;;;;5.60;4.38;;;14.60;55.60;;;;;;5072452;28;20055;-76
2021/04/23 11:34:44;;;;;;;6.72;4.97;;;14.50;56.00;;;;;;5069740;28;20115;-77
2021/04/23 11:37:36;;;;;;;8.70;5.13;;;14.40;56.20;;;;;;5071838;28;20020;-77
2021/04/23 11:40:29;;;;;;;7.25;4.50;;;14.40;56.60;;;;;;5068732;28;20382;-76
2021/04/23 11:43:01;;;;;;;6.38;4.70;;;14.60;56.70;;;;;;5066254;28;20410;-77
2021/04/23 11:45:28;;;;;;;6.65;4.95;;;14.80;56.70;;;;;;5069279;28;20478;-76
2021/04/23 11:47:59;;;;;;;8.35;4.53;;;15.20;56.80;;;;;;5071261;28;20024;-77
2021/04/23 11:50:26;;;;;;;5.68;4.50;;;15.90;56.50;;;;;;5068435;28;20382;-78
2021/04/23 11:52:57;;;;;;;6.80;4.75;;;16.60;55.50;;;;;;5068719;28;20058;-76
2021/04/23 11:55:26;;;;;;;6.65;4.97;;;17.30;54.20;;;;;;5066307;28;20066;-78
2021/04/23 11:58:01;;;;;;;6.90;4.72;;;17.70;52.80;;;;;;5068635;28;20377;-77
2021/04/23 12:00:28;;;;;;;9.10;5.30;;;17.90;52.10;;;;;;5071760;28;20031;-76
2021/04/23 12:03:05;;;;;;;8.77;5.05;;;17.90;51.50;;;;;;5071555;28;20107;-77
2021/04/23 12:05:38;;;;;;;7.57;5.70;;;17.60;51.00;;;;;;5071864;28;20039;-77
2021/04/23 12:08:14;;;;;;;6.57;5.10;;;17.30;51.20;;;;;;5069124;28;20017;-79
2021/04/23 12:11:02;;;;;;;9.02;5.57;;;16.90;51.50;;;;;;5072008;28;20052;-78
2021/04/23 12:13:29;;;;;;;9.07;5.53;;;16.50;52.20;;;;;;5067894;28;20108;-75
2021/04/23 12:16:04;;;;;;;9.10;5.82;;;16.20;52.80;;;;;;5072164;28;20056;-77
2021/04/23 12:18:31;;;;;;;8.90;5.35;;;15.90;53.40;;;;;;5072300;28;20090;-78
2021/04/23 12:21:00;;;;;;;7.45;5.45;;;15.70;53.90;;;;;;5071007;28;20089;-77
2021/04/23 12:23:30;;;;;;;8.63;4.93;;;15.50;54.50;;;;;;5071541;28;20103;-76
2021/04/23 12:26:03;;;;;;;5.25;4.10;;;15.20;54.90;;;;;;5072112;28;20071;-76
2021/04/23 12:28:37;;;;;;;5.97;3.90;;;15.00;55.10;;;;;;5074528;28;20021;-77
2021/04/23 12:31:22;;;;;;;5.45;3.35;;;14.90;55.30;;;;;;5073312;28;20070;-77
2021/04/23 12:33:47;;;;;;;5.10;3.65;;;14.70;55.70;;;;;;5073351;28;20051;-77
2021/04/23 12:36:31;;;;;;;6.72;3.90;;;14.60;56.00;;;;;;5076726;28;20029;-76
2021/04/23 12:38:58;;;;;;;5.85;4.10;;;14.50;56.30;;;;;;5055099;28;20567;-77
2021/04/23 12:41:32;;;;;;;5.72;3.63;;;14.40;56.40;;;;;;5056593;28;20025;-77
2021/04/23 12:44:25;;;;;;;7.95;4.13;;;14.50;56.50;;;;;;5056953;28;20368;-76
2021/04/23 12:46:56;;;;;;;5.25;3.47;;;14.50;56.50;;;;;;5056380;28;20029;-77